createdAt,value
2022-09-18T00:00:04.383Z,101465.41
2022-09-18T00:02:32.092Z,101470.31
2022-09-18T00:04:59.493Z,101474.91
2022-09-18T00:07:26.916Z,101465.09
2022-09-18T00:09:54.403Z,101458.47
2022-09-18T00:12:21.763Z,101450.97
2022-09-18T00:14:50.505Z,101458.59
2022-09-18T00:17:17.906Z,101454.22
2022-09-18T00:19:45.309Z,101447.53
2022-09-18T00:22:12.650Z,101450.59
2022-09-18T00:24:40.082Z,101448.78
2022-09-18T00:27:07.452Z,101456.66
2022-09-18T00:29:34.791Z,101447.84
2022-09-18T00:32:03.676Z,101441.59
2022-09-18T00:34:31.068Z,101441.59
2022-09-18T00:36:58.508Z,101442.41
2022-09-18T00:39:25.994Z,101448.16
2022-09-18T00:41:53.404Z,101445.25
2022-09-18T00:44:30.581Z,101447.53
2022-09-18T00:46:59.229Z,101441.50
2022-09-18T00:49:28.169Z,101436.72
2022-09-18T00:51:56.868Z,101437.56
2022-09-18T00:54:26.605Z,101441.81
2022-09-18T00:56:56.993Z,101438.97
2022-09-18T00:59:25.377Z,101441.59
2022-09-18T01:01:52.982Z,101440.44
2022-09-18T01:04:20.433Z,101444.00
2022-09-18T01:06:51.445Z,101452.06
2022-09-18T01:09:28.643Z,101444.38
2022-09-18T01:12:02.794Z,101443.00
2022-09-18T01:14:32.420Z,101444.69
2022-09-18T01:17:03.960Z,101442.75
2022-09-18T01:19:46.233Z,101447.91
2022-09-18T01:22:23.759Z,101451.66
2022-09-18T01:24:59.802Z,101446.97
2022-09-18T01:27:31.670Z,101442.19
2022-09-18T01:30:03.730Z,101451.72
2022-09-18T01:32:32.761Z,101439.97
2022-09-18T01:35:09.775Z,101434.22
2022-09-18T01:37:49.043Z,101433.19
2022-09-18T01:40:19.051Z,101445.47
2022-09-18T01:42:48.373Z,101446.25
2022-09-18T01:45:17.981Z,101448.91
2022-09-18T01:47:48.648Z,101453.47
2022-09-18T01:50:16.488Z,101457.38
2022-09-18T01:52:46.703Z,101459.13
2022-09-18T01:55:17.640Z,101447.78
2022-09-18T01:57:48.813Z,101450.03
2022-09-18T02:00:17.669Z,101447.88
2022-09-18T02:02:47.190Z,101445.44
2022-09-18T02:05:16.879Z,101436.13
2022-09-18T02:07:48.310Z,101438.13
2022-09-18T02:10:15.751Z,101427.28
2022-09-18T02:12:43.873Z,101430.28
2022-09-18T02:15:13.318Z,101425.16
2022-09-18T02:17:43.919Z,101422.72
2022-09-18T02:20:14.227Z,101422.53
2022-09-18T02:22:43.855Z,101432.50
2022-09-18T02:25:13.800Z,101426.47
2022-09-18T02:27:42.912Z,101425.50
2022-09-18T02:30:10.969Z,101409.88
2022-09-18T02:32:39.043Z,101405.47
2022-09-18T02:35:09.076Z,101398.72
2022-09-18T02:37:40.730Z,101397.88
2022-09-18T02:40:15.146Z,101395.41
2022-09-18T02:42:44.789Z,101393.94
2022-09-18T02:45:20.771Z,101398.69
2022-09-18T02:47:55.090Z,101388.69
2022-09-18T02:50:29.801Z,101395.84
2022-09-18T02:53:05.479Z,101393.91
2022-09-18T02:55:38.543Z,101390.44
2022-09-18T02:58:07.888Z,101395.34
2022-09-18T03:00:35.439Z,101392.72
2022-09-18T03:03:02.933Z,101389.56
2022-09-18T03:05:31.661Z,101400.84
2022-09-18T03:07:58.995Z,101400.25
2022-09-18T03:10:26.442Z,101399.69
2022-09-18T03:12:53.801Z,101391.97
2022-09-18T03:15:22.216Z,101399.56
2022-09-18T03:17:49.549Z,101406.88
2022-09-18T03:20:17.005Z,101397.41
2022-09-18T03:22:45.737Z,101401.66
2022-09-18T03:25:14.281Z,101400.34
2022-09-18T03:27:42.752Z,101388.88
2022-09-18T03:30:10.501Z,101393.47
2022-09-18T03:32:37.855Z,101392.28
2022-09-18T03:35:05.516Z,101385.41
2022-09-18T03:37:32.898Z,101383.31
2022-09-18T03:40:01.715Z,101388.91
2022-09-18T03:42:29.152Z,101386.16
2022-09-18T03:44:57.375Z,101389.06
2022-09-18T03:47:24.943Z,101379.06
2022-09-18T03:49:52.290Z,101377.78
2022-09-18T03:52:19.674Z,101377.78
2022-09-18T03:54:47.298Z,101374.16
2022-09-18T03:57:15.951Z,101372.63
2022-09-18T03:59:43.275Z,101375.22
2022-09-18T04:02:10.711Z,101399.84
2022-09-18T04:04:38.182Z,101410.31
2022-09-18T04:07:05.581Z,101402.03
2022-09-18T04:09:32.973Z,101411.69
2022-09-18T04:12:00.479Z,101397.28
2022-09-18T04:14:30.294Z,101393.00
2022-09-18T04:16:57.843Z,101393.47
2022-09-18T04:19:25.234Z,101403.63
2022-09-18T04:21:52.579Z,101403.00
2022-09-18T04:24:19.953Z,101398.06
2022-09-18T04:26:47.318Z,101399.69
2022-09-18T04:29:14.637Z,101398.59
2022-09-18T04:31:43.798Z,101325.38
2022-09-18T04:34:11.227Z,101390.91
2022-09-18T04:36:38.707Z,101381.09
2022-09-18T04:39:06.097Z,101384.06
2022-09-18T04:41:33.518Z,101389.25
2022-09-18T04:44:00.931Z,101380.13
2022-09-18T04:46:28.365Z,101382.38
2022-09-18T04:48:57.093Z,101388.44
2022-09-18T04:51:24.595Z,101393.19
2022-09-18T04:53:52.271Z,101388.78
2022-09-18T04:56:19.654Z,101386.34
2022-09-18T04:58:47.054Z,101375.22
2022-09-18T05:01:14.508Z,101372.34
2022-09-18T05:03:41.973Z,101374.63
2022-09-18T05:06:10.633Z,101379.69
2022-09-18T05:08:38.183Z,101384.38
2022-09-18T05:11:05.729Z,101379.31
2022-09-18T05:13:33.062Z,101376.25
2022-09-18T05:16:00.499Z,101377.19
2022-09-18T05:18:27.901Z,101366.75
2022-09-18T05:20:55.951Z,101365.97
2022-09-18T05:23:24.631Z,101361.97
2022-09-18T05:25:51.950Z,101375.06
2022-09-18T05:28:19.722Z,101379.03
2022-09-18T05:30:47.059Z,101381.13
2022-09-18T05:33:14.415Z,101376.50
2022-09-18T05:35:42.218Z,101364.44
2022-09-18T05:38:11.014Z,101356.28
2022-09-18T05:40:40.053Z,101357.72
2022-09-18T05:43:07.743Z,101368.44
2022-09-18T05:45:35.435Z,101387.16
2022-09-18T05:48:05.378Z,101382.09
2022-09-18T05:50:34.102Z,101377.03
2022-09-18T05:53:02.667Z,101367.50
2022-09-18T05:55:31.891Z,101374.00
2022-09-18T05:58:01.518Z,101363.25
2022-09-18T06:00:29.614Z,101368.13
2022-09-18T06:02:58.569Z,101373.53
2022-09-18T06:05:25.941Z,101368.13
2022-09-18T06:07:57.630Z,101362.44
2022-09-18T06:10:27.372Z,101364.19
2022-09-18T06:13:02.223Z,101360.47
2022-09-18T06:15:30.040Z,101356.34
2022-09-18T06:17:57.512Z,101356.84
2022-09-18T06:20:24.870Z,101345.75
2022-09-18T06:22:52.599Z,101343.13
2022-09-18T06:25:21.705Z,101353.38
2022-09-18T06:27:50.396Z,101350.25
2022-09-18T06:30:19.116Z,101346.50
2022-09-18T06:32:46.473Z,101341.38
2022-09-18T06:35:13.831Z,101342.66
2022-09-18T06:37:41.186Z,101340.78
2022-09-18T06:40:08.846Z,101340.09
2022-09-18T06:42:36.244Z,101338.47
2022-09-18T06:45:04.077Z,101334.91
2022-09-18T06:47:32.761Z,101345.66
2022-09-18T06:50:00.180Z,101350.28
2022-09-18T06:52:27.514Z,101351.88
2022-09-18T06:54:54.836Z,101348.44
2022-09-18T06:57:22.190Z,101351.88
2022-09-18T06:59:49.546Z,101353.13
2022-09-18T07:02:19.548Z,101358.13
2022-09-18T07:04:49.481Z,101360.47
2022-09-18T07:07:16.792Z,101362.38
2022-09-18T07:09:44.139Z,101354.50
2022-09-18T07:12:11.483Z,101358.56
2022-09-18T07:14:38.963Z,101359.94
2022-09-18T07:17:10.499Z,101368.72
2022-09-18T07:19:39.624Z,101372.84
2022-09-18T07:22:08.301Z,101386.94
2022-09-18T07:24:36.667Z,101384.50
2022-09-18T07:27:04.055Z,101385.97
2022-09-18T07:29:32.688Z,101379.72
2022-09-18T07:32:00.426Z,101360.81
2022-09-18T07:34:28.538Z,101359.03
2022-09-18T07:36:55.909Z,101360.81
2022-09-18T07:39:24.763Z,101362.81
2022-09-18T07:41:52.295Z,101360.91
2022-09-18T07:44:19.645Z,101352.69
2022-09-18T07:46:47.041Z,101356.25
2022-09-18T07:49:14.720Z,101354.97
2022-09-18T07:51:42.061Z,101350.88
2022-09-18T07:54:09.428Z,101357.47
2022-09-18T07:56:38.152Z,101362.84
2022-09-18T07:59:05.503Z,101350.25
2022-09-18T08:01:34.259Z,101357.75
2022-09-18T08:04:01.761Z,101348.88
2022-09-18T08:06:29.194Z,101362.78
2022-09-18T08:08:56.726Z,101367.38
2022-09-18T08:11:24.084Z,101359.63
2022-09-18T08:13:52.791Z,101360.13
2022-09-18T08:16:21.614Z,101354.31
2022-09-18T08:18:49.130Z,101353.13
2022-09-18T08:21:16.545Z,101354.53
2022-09-18T08:23:43.893Z,101348.16
2022-09-18T08:26:11.237Z,101350.81
2022-09-18T08:28:38.738Z,101348.28
2022-09-18T08:31:07.770Z,101343.34
2022-09-18T08:33:35.157Z,101351.56
2022-09-18T08:36:03.339Z,101344.84
2022-09-18T08:38:30.678Z,101343.03
2022-09-18T08:41:19.974Z,101344.38
2022-09-18T08:43:57.593Z,101351.00
2022-09-18T08:46:30.736Z,101349.19
2022-09-18T08:49:02.388Z,101366.31
2022-09-18T08:51:31.799Z,101372.03
2022-09-18T08:54:03.329Z,101383.47
2022-09-18T08:56:31.041Z,101367.72
2022-09-18T08:58:59.614Z,101368.94
2022-09-18T09:01:33.771Z,101376.13
2022-09-18T09:04:03.008Z,101369.28
2022-09-18T09:06:36.677Z,101361.06
2022-09-18T09:09:14.919Z,101360.31
2022-09-18T09:11:49.821Z,101364.16
2022-09-18T09:14:52.766Z,101351.16
2022-09-18T09:17:18.498Z,101353.63
2022-09-18T09:19:50.908Z,101292.59
2022-09-18T09:22:19.043Z,101357.38
2022-09-18T09:24:53.012Z,101363.31
2022-09-18T09:27:22.195Z,101370.81
2022-09-18T09:29:51.700Z,101371.91
2022-09-18T09:32:25.784Z,101374.53
2022-09-18T09:34:56.333Z,101359.63
2022-09-18T09:37:25.781Z,101368.56
2022-09-18T09:39:57.526Z,101370.22
2022-09-18T09:42:27.707Z,101364.16
2022-09-18T09:44:56.120Z,101351.53
2022-09-18T09:47:32.902Z,101362.44
2022-09-18T09:50:17.406Z,101367.00
2022-09-18T09:52:47.554Z,101377.09
2022-09-18T09:55:21.210Z,101372.53
2022-09-18T09:57:52.699Z,101372.16
2022-09-18T10:00:20.936Z,101373.50
2022-09-18T10:02:59.348Z,101366.59
2022-09-18T10:05:30.309Z,101373.44
2022-09-18T10:07:59.574Z,101367.13
2022-09-18T10:10:31.667Z,101367.38
2022-09-18T10:13:01.593Z,101371.09
2022-09-18T10:15:35.962Z,101371.59
2022-09-18T10:18:06.477Z,101372.56
2022-09-18T10:20:34.181Z,101369.31
2022-09-18T10:23:04.575Z,101370.47
2022-09-18T10:25:38.760Z,101376.81
2022-09-18T10:28:06.128Z,101371.84
2022-09-18T10:30:33.544Z,101377.72
2022-09-18T10:33:00.872Z,101395.16
2022-09-18T10:35:43.542Z,101403.66
2022-09-18T10:38:32.289Z,101392.06
2022-09-18T10:41:11.838Z,101382.66
2022-09-18T10:43:50.481Z,101385.97
2022-09-18T10:46:23.445Z,101390.88
2022-09-18T10:48:51.240Z,101383.97
2022-09-18T10:51:21.536Z,101387.34
2022-09-18T10:54:01.573Z,101384.38
2022-09-18T10:56:29.221Z,101377.09
2022-09-18T10:58:57.288Z,101390.63
2022-09-18T11:01:25.180Z,101385.28
2022-09-18T11:04:00.722Z,101380.66
2022-09-18T11:06:31.014Z,101389.31
2022-09-18T11:09:01.195Z,101375.28
2022-09-18T11:11:30.067Z,101366.69
2022-09-18T11:13:59.143Z,101365.16
2022-09-18T11:16:28.740Z,101363.69
2022-09-18T11:19:08.007Z,101373.31
2022-09-18T11:21:45.220Z,101362.44
2022-09-18T11:24:17.944Z,101370.16
2022-09-18T11:26:49.694Z,101381.34
2022-09-18T11:29:19.022Z,101382.66
2022-09-18T11:31:47.863Z,101370.16
2022-09-18T11:34:19.249Z,101366.50
2022-09-18T11:36:50.032Z,101362.28
2022-09-18T11:39:24.573Z,101356.97
2022-09-18T11:41:52.797Z,101360.94
2022-09-18T11:44:23.477Z,101366.03
2022-09-18T11:46:58.855Z,101358.84
2022-09-18T11:49:31.234Z,101355.41
2022-09-18T11:52:02.241Z,101358.81
2022-09-18T11:54:32.317Z,101351.44
2022-09-18T11:57:01.810Z,101360.66
2022-09-18T11:59:31.983Z,101363.25
2022-09-18T12:02:02.316Z,101366.63
2022-09-18T12:04:35.095Z,101367.88
2022-09-18T12:07:11.387Z,101363.03
2022-09-18T12:09:41.224Z,101368.22
2022-09-18T12:12:11.459Z,101375.19
2022-09-18T12:14:41.817Z,101372.34
2022-09-18T12:17:13.929Z,101378.38
2022-09-18T12:19:48.221Z,101382.47
2022-09-18T12:22:19.468Z,101379.75
2022-09-18T12:24:47.142Z,101380.00
2022-09-18T12:27:20.151Z,101377.63
2022-09-18T12:29:56.132Z,101380.56
2022-09-18T12:32:35.376Z,101382.84
2022-09-18T12:35:05.737Z,101386.50
2022-09-18T12:37:45.427Z,101387.78
2022-09-18T12:40:26.581Z,101379.63
2022-09-18T12:43:00.932Z,101379.72
2022-09-18T12:45:45.020Z,101380.44
2022-09-18T12:48:19.917Z,101378.19
2022-09-18T12:50:56.298Z,101381.50
2022-09-18T12:53:29.308Z,101387.94
2022-09-18T12:56:14.584Z,101381.63
2022-09-18T12:58:51.897Z,101380.75
2022-09-18T13:01:25.757Z,101371.84
2022-09-18T13:03:55.865Z,101362.56
2022-09-18T13:06:29.274Z,101362.97
2022-09-18T13:08:59.115Z,101368.94
2022-09-18T13:11:30.085Z,101367.41
2022-09-18T13:14:00.606Z,101360.75
2022-09-18T13:16:35.232Z,101366.63
2022-09-18T13:19:05.822Z,101362.66
2022-09-18T13:21:34.351Z,101361.88
2022-09-18T13:24:03.636Z,101358.31
2022-09-18T13:26:32.997Z,101368.25
2022-09-18T13:29:00.356Z,101368.47
2022-09-18T13:31:29.024Z,101372.06
2022-09-18T13:33:57.821Z,101377.22
2022-09-18T13:36:26.705Z,101376.31
2022-09-18T13:38:54.675Z,101374.13
2022-09-18T13:41:23.897Z,101377.38
2022-09-18T13:43:56.222Z,101385.69
2022-09-18T13:46:31.702Z,101386.25
2022-09-18T13:49:00.574Z,101376.56
2022-09-18T13:51:31.405Z,101375.41
2022-09-18T13:54:23.061Z,101370.78
2022-09-18T13:57:10.869Z,101362.94
2022-09-18T13:59:46.931Z,101360.47
2022-09-18T14:02:28.195Z,101361.13
2022-09-18T14:05:11.158Z,101360.94
2022-09-18T14:07:55.874Z,101371.31
2022-09-18T14:10:34.520Z,101372.34
2022-09-18T14:13:21.029Z,101377.31
2022-09-18T14:15:54.774Z,101377.31
2022-09-18T14:18:24.603Z,101369.59
2022-09-18T14:20:52.896Z,101352.19
2022-09-18T14:23:40.894Z,101345.16
2022-09-18T14:26:08.773Z,101339.09
2022-09-18T14:28:37.885Z,101345.19
2022-09-18T14:31:14.159Z,101354.88
2022-09-18T14:33:41.692Z,101367.25
2022-09-18T14:36:14.681Z,101362.47
2022-09-18T14:38:42.315Z,101364.63
2022-09-18T14:41:19.067Z,101363.38
2022-09-18T14:43:50.330Z,101361.38
2022-09-18T14:46:20.749Z,101361.03
2022-09-18T14:48:48.348Z,101361.66
2022-09-18T14:51:19.015Z,101359.22
2022-09-18T14:53:49.866Z,101368.06
2022-09-18T14:56:19.095Z,101362.84
2022-09-18T14:58:47.707Z,101365.91
2022-09-18T15:01:16.523Z,101367.53
2022-09-18T15:03:47.096Z,101370.22
2022-09-18T15:06:17.719Z,101366.72
2022-09-18T15:08:46.857Z,101371.41
2022-09-18T15:11:14.799Z,101373.66
2022-09-18T15:13:43.062Z,101372.66
2022-09-18T15:16:17.831Z,101367.72
2022-09-18T15:18:46.577Z,101367.38
2022-09-18T15:21:21.502Z,101368.59
2022-09-18T15:23:49.036Z,101371.31
2022-09-18T15:26:17.409Z,101382.63
2022-09-18T15:28:46.379Z,101377.56
2022-09-18T15:31:14.508Z,101380.69
2022-09-18T15:33:47.985Z,101385.22
2022-09-18T15:36:23.143Z,101386.13
2022-09-18T15:38:50.655Z,101388.09
2022-09-18T15:41:22.241Z,101391.72
2022-09-18T15:43:50.335Z,101400.25
2022-09-18T15:46:25.366Z,101396.66
2022-09-18T15:48:52.954Z,101407.13
2022-09-18T15:51:24.208Z,101408.59
2022-09-18T15:54:01.912Z,101406.06
2022-09-18T15:56:29.659Z,101416.88
2022-09-18T15:58:58.815Z,101413.84
2022-09-18T16:01:28.367Z,101404.66
2022-09-18T16:04:04.487Z,101403.09
2022-09-18T16:06:40.686Z,101388.50
2022-09-18T16:09:08.032Z,101390.97
2022-09-18T16:11:41.545Z,101379.31
2022-09-18T16:14:23.846Z,101374.53
2022-09-18T16:16:51.291Z,101364.47
2022-09-18T16:19:19.393Z,101360.88
2022-09-18T16:21:48.081Z,101371.50
2022-09-18T16:24:19.447Z,101365.81
2022-09-18T16:26:46.779Z,101374.88
2022-09-18T16:29:18.415Z,101380.31
2022-09-18T16:31:47.042Z,101397.28
2022-09-18T16:34:20.534Z,101395.63
2022-09-18T16:36:49.444Z,101399.81
2022-09-18T16:39:17.588Z,101389.59
2022-09-18T16:41:45.405Z,101379.44
2022-09-18T16:44:13.662Z,101370.56
2022-09-18T16:46:43.092Z,101375.59
2022-09-18T16:49:11.002Z,101375.63
2022-09-18T16:51:38.479Z,101381.16
2022-09-18T16:54:07.428Z,101383.56
2022-09-18T16:56:36.239Z,101383.63
2022-09-18T16:59:04.178Z,101385.69
2022-09-18T17:01:43.740Z,101390.31
2022-09-18T17:04:21.039Z,101388.13
2022-09-18T17:06:48.452Z,101400.50
2022-09-18T17:09:17.154Z,101397.34
2022-09-18T17:11:44.586Z,101397.53
2022-09-18T17:14:12.032Z,101401.59
2022-09-18T17:16:44.550Z,101405.03
2022-09-18T17:19:12.785Z,101409.47
2022-09-18T17:21:40.781Z,101409.31
2022-09-18T17:24:08.794Z,101406.06
2022-09-18T17:26:38.692Z,101409.97
2022-09-18T17:29:06.200Z,101411.78
2022-09-18T17:31:33.605Z,101411.94
2022-09-18T17:34:01.134Z,101417.31
2022-09-18T17:36:28.938Z,101419.44
2022-09-18T17:39:00.531Z,101426.59
2022-09-18T17:41:29.686Z,101427.28
2022-09-18T17:43:58.386Z,101427.91
2022-09-18T17:46:25.786Z,101424.16
2022-09-18T17:48:54.112Z,101427.25
2022-09-18T17:51:27.694Z,101428.41
2022-09-18T17:53:58.619Z,101430.84
2022-09-18T17:56:29.677Z,101435.25
2022-09-18T17:58:59.850Z,101449.44
2022-09-18T18:01:28.386Z,101442.28
2022-09-18T18:03:55.788Z,101450.25
2022-09-18T18:06:23.208Z,101449.13
2022-09-18T18:08:50.971Z,101451.56
2022-09-18T18:11:19.251Z,101460.84
2022-09-18T18:13:49.691Z,101464.06
2022-09-18T18:16:23.379Z,101457.44
2022-09-18T18:18:51.353Z,101462.34
2022-09-18T18:21:19.351Z,101465.94
2022-09-18T18:23:46.988Z,101468.47
2022-09-18T18:26:14.631Z,101470.59
2022-09-18T18:28:42.673Z,101474.50
2022-09-18T18:31:12.016Z,101477.91
2022-09-18T18:33:42.503Z,101481.38
2022-09-18T18:36:10.791Z,101479.13
2022-09-18T18:38:38.487Z,101488.09
2022-09-18T18:41:06.642Z,101486.13
2022-09-18T18:43:34.761Z,101494.13
2022-09-18T18:46:02.225Z,101495.75
2022-09-18T18:48:33.834Z,101498.38
2022-09-18T18:51:05.282Z,101503.44
2022-09-18T18:53:32.690Z,101510.44
2022-09-18T18:56:03.065Z,101518.56
2022-09-18T18:58:31.224Z,101508.72
2022-09-18T19:01:05.359Z,101512.50
2022-09-18T19:03:35.172Z,101511.69
2022-09-18T19:06:07.167Z,101515.72
2022-09-18T19:08:35.600Z,101526.97
2022-09-18T19:11:04.831Z,101528.91
2022-09-18T19:13:43.025Z,101523.69
2022-09-18T19:16:10.586Z,101524.81
2022-09-18T19:18:38.084Z,101532.31
2022-09-18T19:21:07.654Z,101529.06
2022-09-18T19:23:35.077Z,101538.97
2022-09-18T19:26:02.700Z,101538.31
2022-09-18T19:28:30.930Z,101547.13
2022-09-18T19:31:03.357Z,101542.22
2022-09-18T19:33:31.156Z,101547.75
2022-09-18T19:36:02.961Z,101545.44
2022-09-18T19:38:33.112Z,101544.13
2022-09-18T19:41:02.026Z,101549.16
2022-09-18T19:43:31.794Z,101551.63
2022-09-18T19:45:59.481Z,101551.13
2022-09-18T19:48:28.035Z,101551.59
2022-09-18T19:50:55.485Z,101555.47
2022-09-18T19:53:23.153Z,101557.78
2022-09-18T19:55:51.894Z,101558.75
2022-09-18T19:58:20.145Z,101568.22
2022-09-18T20:00:47.702Z,101563.63
2022-09-18T20:03:15.674Z,101567.84
2022-09-18T20:05:43.539Z,101566.72
2022-09-18T20:08:11.244Z,101568.50
2022-09-18T20:10:39.984Z,101570.78
2022-09-18T20:13:09.700Z,101573.53
2022-09-18T20:15:37.261Z,101579.72
2022-09-18T20:18:06.389Z,101574.94
2022-09-18T20:20:37.237Z,101576.88
2022-09-18T20:23:05.759Z,101582.91
2022-09-18T20:25:33.118Z,101586.69
2022-09-18T20:28:02.131Z,101591.22
2022-09-18T20:30:30.841Z,101595.91
2022-09-18T20:32:58.194Z,101592.47
2022-09-18T20:35:26.916Z,101597.25
2022-09-18T20:37:55.590Z,101599.19
2022-09-18T20:40:23.278Z,101604.84
2022-09-18T20:42:51.989Z,101604.84
2022-09-18T20:45:19.550Z,101611.53
2022-09-18T20:47:48.320Z,101613.72
2022-09-18T20:50:17.102Z,101604.59
2022-09-18T20:52:45.093Z,101610.84
2022-09-18T20:55:13.857Z,101609.41
2022-09-18T20:57:41.455Z,101610.22
2022-09-18T21:00:10.870Z,101605.34
2022-09-18T21:02:38.273Z,101618.53
2022-09-18T21:05:11.032Z,101611.81
2022-09-18T21:07:38.508Z,101617.34
2022-09-18T21:10:06.927Z,101620.75
2022-09-18T21:12:39.159Z,101619.63
2022-09-18T21:15:07.371Z,101618.88
2022-09-18T21:17:34.772Z,101615.13
2022-09-18T21:20:02.945Z,101626.09
2022-09-18T21:22:31.850Z,101629.19
2022-09-18T21:24:59.424Z,101631.97
2022-09-18T21:27:26.965Z,101629.66
2022-09-18T21:29:59.069Z,101623.13
2022-09-18T21:32:26.432Z,101628.84
2022-09-18T21:34:54.605Z,101627.06
2022-09-18T21:37:21.954Z,101634.72
2022-09-18T21:39:50.777Z,101621.53
2022-09-18T21:42:18.140Z,101633.75
2022-09-18T21:44:45.646Z,101635.75
2022-09-18T21:47:13.518Z,101630.38
2022-09-18T21:49:40.857Z,101636.41
2022-09-18T21:52:09.119Z,101639.16
2022-09-18T21:54:36.651Z,101638.34
2022-09-18T21:57:05.767Z,101641.25
2022-09-18T21:59:35.810Z,101644.84
2022-09-18T22:02:04.828Z,101648.59
2022-09-18T22:04:33.765Z,101647.78
2022-09-18T22:07:01.765Z,101650.38
2022-09-18T22:09:31.291Z,101651.88
2022-09-18T22:11:59.903Z,101655.44
2022-09-18T22:14:31.288Z,101643.38
2022-09-18T22:16:59.060Z,101647.09
2022-09-18T22:19:26.699Z,101653.47
2022-09-18T22:21:54.265Z,101659.38
2022-09-18T22:24:22.651Z,101665.63
2022-09-18T22:26:50.969Z,101665.47
2022-09-18T22:29:19.425Z,101672.47
2022-09-18T22:31:49.254Z,101672.66
2022-09-18T22:34:18.281Z,101662.59
2022-09-18T22:36:45.698Z,101670.91
2022-09-18T22:39:13.631Z,101669.13
2022-09-18T22:41:41.108Z,101676.34
2022-09-18T22:44:08.532Z,101672.47
2022-09-18T22:46:37.512Z,101677.50
2022-09-18T22:49:06.713Z,101675.09
2022-09-18T22:51:34.089Z,101678.16
2022-09-18T22:54:02.790Z,101677.31
2022-09-18T22:56:30.177Z,101684.47
2022-09-18T22:58:58.485Z,101682.34
2022-09-18T23:01:27.173Z,101686.22
2022-09-18T23:03:55.679Z,101684.97
2022-09-18T23:06:25.573Z,101682.19
2022-09-18T23:08:53.323Z,101689.19
2022-09-18T23:11:22.064Z,101699.47
2022-09-18T23:13:50.719Z,101696.56
2022-09-18T23:16:18.603Z,101689.56
2022-09-18T23:18:48.816Z,101689.09
2022-09-18T23:21:16.324Z,101683.41
2022-09-18T23:23:45.549Z,101694.66
2022-09-18T23:26:14.655Z,101616.25
2022-09-18T23:28:42.956Z,101689.41
2022-09-18T23:31:11.531Z,101686.94
2022-09-18T23:33:39.412Z,101688.56
2022-09-18T23:36:08.282Z,101684.47
2022-09-18T23:38:35.677Z,101692.97
2022-09-18T23:41:05.145Z,101697.22
2022-09-18T23:43:32.593Z,101691.72
2022-09-18T23:45:59.978Z,101692.03
2022-09-18T23:48:27.956Z,101694.50
2022-09-18T23:50:55.991Z,101695.22
2022-09-18T23:53:24.017Z,101688.88
2022-09-18T23:55:51.768Z,101687.06
2022-09-18T23:58:20.468Z,101693.78
